KALW/ALW METAR and TAF weather

Enter ICAO airport designator
Station Type Date Time Source
KALW METAR 2018/04/27 00:53 UTC NOAA

KALW 270053Z 34006KT 10SM CLR 25/11 A2993 RMK AO2 SLP131 T02500111


Station Type Date Time Source
KALW Decoded METAR 2018/04/27 00:53 UTC NOAA

WALLA WALLA REGIONAL AIRPORT, WA, United States (KALW) 46-06N 118-17W 363M
Apr 26, 2018 - 08:53 PM EDT / 2018.04.27 0053 UTC
Wind: from the NNW (340 degrees) at 7 MPH (6 KT):0
Visibility: 10 mile(s):0
Sky conditions: clear
Temperature: 77.0 F (25.0 C)
Dew Point: 52.0 F (11.1 C)
Relative Humidity: 41%
Pressure (altimeter): 29.93 in. Hg (1013 hPa)
ob: KALW 270053Z 34006KT 10SM CLR 25/11 A2993 RMK AO2 SLP131 T02500111
cycle: 1

Station Type Date Time Source
KALW TAF 2018/04/26 18:40 UTC NOAA

TAF KALW 261737Z 2618/2718 33007KT P6SM SKC
FM270400 12006KT P6SM SKC
FM271200 12007KT P6SM SCT200
FM271700 VRB05KT P6SM BKN180


Example: see airport list